createdAt,value
2022-12-06T00:01:10.559Z,101390.22
2022-12-06T00:03:38.980Z,101391.09
2022-12-06T00:06:10.123Z,101395.53
2022-12-06T00:08:39.428Z,101393.75
2022-12-06T00:11:09.013Z,101392.94
2022-12-06T00:13:39.302Z,101393.75
2022-12-06T00:16:09.918Z,101393.75
2022-12-06T00:18:39.599Z,101397.28
2022-12-06T00:21:09.259Z,101398.16
2022-12-06T00:23:38.585Z,101392.03
2022-12-06T00:26:08.085Z,101393.81
2022-12-06T00:28:38.940Z,101390.28
2022-12-06T00:31:08.681Z,101393.81
2022-12-06T00:33:38.052Z,101393.84
2022-12-06T00:36:08.686Z,101386.81
2022-12-06T00:38:36.753Z,101383.34
2022-12-06T00:41:06.738Z,101378.94
2022-12-06T00:43:35.627Z,101385.13
2022-12-06T00:46:07.228Z,101384.25
2022-12-06T00:48:35.712Z,101382.53
2022-12-06T00:51:04.020Z,101376.41
2022-12-06T00:53:32.112Z,101378.16
2022-12-06T00:56:00.174Z,101365.84
2022-12-06T00:58:28.255Z,101365.03
2022-12-06T01:00:56.406Z,101372.97
2022-12-06T01:03:27.750Z,101373.84
2022-12-06T01:05:58.859Z,101375.63
2022-12-06T01:08:26.981Z,101372.16
2022-12-06T01:10:55.922Z,101371.25
2022-12-06T01:13:23.942Z,101371.31
2022-12-06T01:15:52.102Z,101363.41
2022-12-06T01:18:20.154Z,101370.41
2022-12-06T01:20:49.837Z,101372.22
2022-12-06T01:23:17.988Z,101374.84
2022-12-06T01:25:52.465Z,101361.66
2022-12-06T01:28:20.566Z,101363.47
2022-12-06T01:30:48.784Z,101365.25
2022-12-06T01:33:16.923Z,101364.34
2022-12-06T01:35:45.042Z,101369.66
2022-12-06T01:38:14.767Z,101367.03
2022-12-06T01:40:44.689Z,101364.41
2022-12-06T01:43:43.642Z,101362.63
2022-12-06T01:46:23.229Z,101352.03
2022-12-06T01:48:53.965Z,101362.66
2022-12-06T01:51:22.342Z,101353.88
2022-12-06T01:53:54.710Z,101355.66
2022-12-06T01:56:23.657Z,101358.28
2022-12-06T01:58:55.363Z,101357.38
2022-12-06T02:01:25.447Z,101358.31
2022-12-06T02:03:55.770Z,101357.38
2022-12-06T02:06:23.958Z,101354.75
2022-12-06T02:08:55.989Z,101352.13
2022-12-06T02:11:24.078Z,101351.28
2022-12-06T02:13:52.641Z,101349.53
2022-12-06T02:16:42.899Z,101342.50
2022-12-06T02:19:31.634Z,101343.34
2022-12-06T02:22:08.636Z,101332.81
2022-12-06T02:24:55.651Z,101334.56
2022-12-06T02:27:51.946Z,101333.69
2022-12-06T02:30:39.900Z,101329.28
2022-12-06T02:33:12.194Z,101322.22
2022-12-06T02:35:44.059Z,101334.56
2022-12-06T02:38:17.638Z,101330.16
2022-12-06T02:40:50.206Z,101324.00
2022-12-06T02:43:22.098Z,101329.28
2022-12-06T02:45:55.741Z,101329.28
2022-12-06T02:48:26.908Z,101325.78
2022-12-06T02:50:59.949Z,101325.78
2022-12-06T02:53:30.370Z,101329.28
2022-12-06T02:55:59.191Z,101321.38
2022-12-06T02:58:27.575Z,101324.88
2022-12-06T03:01:00.736Z,101323.16
2022-12-06T03:04:08.315Z,101323.16
2022-12-06T03:06:56.847Z,101324.00
2022-12-06T03:09:37.722Z,101324.00
2022-12-06T03:12:12.516Z,101318.75
2022-12-06T03:14:51.801Z,101318.72
2022-12-06T03:17:31.291Z,101316.97
2022-12-06T03:20:06.039Z,101319.59
2022-12-06T03:22:39.959Z,101310.84
2022-12-06T03:25:11.255Z,101313.47
2022-12-06T03:27:42.076Z,101310.81
2022-12-06T03:30:13.942Z,101309.94
2022-12-06T03:32:45.855Z,101311.69
2022-12-06T03:35:18.924Z,101309.06
2022-12-06T03:37:51.469Z,101303.78
2022-12-06T03:40:22.902Z,101302.03
2022-12-06T03:42:52.175Z,101306.41
2022-12-06T03:45:23.732Z,101314.31
2022-12-06T03:47:59.373Z,101309.03
2022-12-06T03:50:33.445Z,101309.88
2022-12-06T03:53:02.418Z,101313.44
2022-12-06T03:55:30.653Z,101310.78
2022-12-06T03:57:58.725Z,101311.66
2022-12-06T04:00:26.807Z,101309.88
2022-12-06T04:02:56.254Z,101294.94
2022-12-06T04:05:24.313Z,101300.25
2022-12-06T04:07:52.489Z,101296.66
2022-12-06T04:10:20.631Z,101303.72
2022-12-06T04:13:05.861Z,101290.50
2022-12-06T04:15:37.146Z,101300.16
2022-12-06T04:18:14.166Z,101294.00
2022-12-06T04:21:04.660Z,101294.88
2022-12-06T04:23:35.821Z,101301.06
2022-12-06T04:26:05.421Z,101300.16
2022-12-06T04:28:51.530Z,101293.16
2022-12-06T04:31:37.145Z,101289.66
2022-12-06T04:34:23.980Z,101282.59
2022-12-06T04:37:09.509Z,101286.13
2022-12-06T04:39:38.033Z,101281.75
2022-12-06T04:42:23.792Z,101254.38
2022-12-06T04:44:51.838Z,101272.06
2022-12-06T04:47:20.163Z,101280.84
2022-12-06T04:49:49.598Z,101275.56
2022-12-06T04:52:18.576Z,101258.84
2022-12-06T04:54:47.282Z,101275.59
2022-12-06T04:57:17.574Z,101278.22
2022-12-06T04:59:46.588Z,101276.47
2022-12-06T05:02:16.282Z,101283.50
2022-12-06T05:04:44.392Z,101274.72
2022-12-06T05:07:14.239Z,101269.41
2022-12-06T05:09:42.289Z,101274.72
2022-12-06T05:12:10.494Z,101277.34
2022-12-06T05:14:38.594Z,101265.00
2022-12-06T05:17:06.651Z,101277.34
2022-12-06T05:19:34.720Z,101257.91
2022-12-06T05:22:02.765Z,101277.34
2022-12-06T05:24:32.202Z,101279.09
2022-12-06T05:27:00.298Z,101279.09
2022-12-06T05:29:28.346Z,101279.97
2022-12-06T05:31:56.450Z,101281.75
2022-12-06T05:34:25.070Z,101275.56
2022-12-06T05:36:53.109Z,101285.25
2022-12-06T05:39:21.174Z,101283.50
2022-12-06T05:41:50.610Z,101272.94
2022-12-06T05:44:18.882Z,101276.50
2022-12-06T05:46:46.985Z,101280.00
2022-12-06T05:49:15.197Z,101278.22
2022-12-06T05:51:44.289Z,101279.97
2022-12-06T05:54:12.341Z,101273.78
2022-12-06T05:56:40.941Z,101275.56
2022-12-06T05:59:10.391Z,101273.75
2022-12-06T06:01:38.583Z,101272.03
2022-12-06T06:04:06.745Z,101268.50
2022-12-06T06:06:35.088Z,101278.16
2022-12-06T06:09:03.182Z,101277.31
2022-12-06T06:11:31.284Z,101271.09
2022-12-06T06:13:59.320Z,101264.06
2022-12-06T06:16:28.974Z,101264.97
2022-12-06T06:18:57.138Z,101266.69
2022-12-06T06:21:25.194Z,101262.31
2022-12-06T06:23:53.230Z,101264.97
2022-12-06T06:26:21.341Z,101254.31
2022-12-06T06:28:49.430Z,101269.31
2022-12-06T06:31:17.552Z,101267.53
2022-12-06T06:33:46.963Z,101283.34
2022-12-06T06:36:15.185Z,101280.72
2022-12-06T06:38:43.273Z,101289.56
2022-12-06T06:41:12.321Z,101286.91
2022-12-06T06:43:40.865Z,101289.53
2022-12-06T06:46:09.283Z,101292.19
2022-12-06T06:48:39.887Z,101295.72
2022-12-06T06:51:12.282Z,101300.09
2022-12-06T06:53:40.682Z,101293.03
2022-12-06T06:56:09.789Z,101300.09
2022-12-06T06:58:37.901Z,101293.03
2022-12-06T07:01:08.422Z,101295.69
2022-12-06T07:03:36.971Z,101300.97
2022-12-06T07:06:08.504Z,101304.47
2022-12-06T07:08:39.544Z,101298.31
2022-12-06T07:11:07.728Z,101293.03
2022-12-06T07:13:37.647Z,101301.81
2022-12-06T07:16:06.478Z,101292.16
2022-12-06T07:18:34.994Z,101271.78
2022-12-06T07:21:05.851Z,101290.34
2022-12-06T07:23:35.838Z,101293.00
2022-12-06T07:26:07.342Z,101302.63
2022-12-06T07:28:37.860Z,101290.31
2022-12-06T07:31:10.281Z,101294.75
2022-12-06T07:33:38.544Z,101297.38
2022-12-06T07:36:12.839Z,101287.72
2022-12-06T07:38:42.824Z,101284.19
2022-12-06T07:41:32.106Z,101284.19
2022-12-06T07:44:18.723Z,101290.38
2022-12-06T07:46:47.656Z,101291.22
2022-12-06T07:49:16.834Z,101291.22
2022-12-06T07:51:45.627Z,101287.72
2022-12-06T07:54:13.823Z,101293.88
2022-12-06T07:56:44.126Z,101291.22
2022-12-06T07:59:12.872Z,101291.22
2022-12-06T08:01:41.048Z,101300.00
2022-12-06T08:04:09.298Z,101293.00
2022-12-06T08:06:37.555Z,101294.72
2022-12-06T08:09:05.817Z,101303.50
2022-12-06T08:11:34.133Z,101295.56
2022-12-06T08:14:03.759Z,101302.63
2022-12-06T08:16:32.094Z,101303.53
2022-12-06T08:19:00.356Z,101302.63
2022-12-06T08:21:28.474Z,101304.38
2022-12-06T08:23:56.555Z,101304.41
2022-12-06T08:26:25.035Z,101302.63
2022-12-06T08:28:53.324Z,101311.41
2022-12-06T08:31:25.189Z,101305.28
2022-12-06T08:33:53.395Z,101309.69
2022-12-06T08:36:23.190Z,101311.38
2022-12-06T08:38:52.101Z,101309.69
2022-12-06T08:41:38.172Z,101301.75
2022-12-06T08:44:06.774Z,101314.09
2022-12-06T08:46:36.678Z,101318.47
2022-12-06T08:49:05.049Z,101312.34
2022-12-06T08:51:34.446Z,101308.81
2022-12-06T08:54:02.941Z,101312.31
2022-12-06T08:56:31.388Z,101324.63
2022-12-06T08:58:59.523Z,101318.47
2022-12-06T09:01:37.147Z,101320.25
2022-12-06T09:04:09.527Z,101306.94
2022-12-06T09:06:39.959Z,101324.66
2022-12-06T09:09:09.646Z,101328.16
2022-12-06T09:11:38.347Z,101329.06
2022-12-06T09:14:07.321Z,101329.94
2022-12-06T09:16:35.792Z,101329.09
2022-12-06T09:19:04.241Z,101328.16
2022-12-06T09:21:34.497Z,101332.50
2022-12-06T09:24:02.891Z,101308.72
2022-12-06T09:26:30.933Z,101329.88
2022-12-06T09:29:00.098Z,101329.88
2022-12-06T09:31:28.237Z,101331.66
2022-12-06T09:33:56.545Z,101318.41
2022-12-06T09:36:26.680Z,101331.63
2022-12-06T09:39:00.272Z,101341.34
2022-12-06T09:41:46.404Z,101329.00
2022-12-06T09:44:32.895Z,101327.28
2022-12-06T09:47:12.014Z,101330.81
2022-12-06T09:49:52.598Z,101329.94
2022-12-06T09:52:54.430Z,101325.53
2022-12-06T09:55:35.427Z,101323.78
2022-12-06T09:58:15.937Z,101322.91
2022-12-06T10:00:54.043Z,101315.00
2022-12-06T10:03:38.194Z,101323.81
2022-12-06T10:06:12.985Z,101311.47
2022-12-06T10:09:04.958Z,101313.28
2022-12-06T10:11:53.141Z,101302.66
2022-12-06T10:14:37.741Z,101308.84
2022-12-06T10:17:13.662Z,101302.66
2022-12-06T10:19:56.924Z,101318.47
2022-12-06T10:22:44.515Z,101314.09
2022-12-06T10:25:17.095Z,101312.34
2022-12-06T10:27:52.983Z,101312.34
2022-12-06T10:30:21.634Z,101309.72
2022-12-06T10:32:55.423Z,101305.28
2022-12-06T10:35:38.277Z,101303.53
2022-12-06T10:38:17.716Z,101310.56
2022-12-06T10:40:57.651Z,101312.34
2022-12-06T10:43:33.888Z,101295.53
2022-12-06T10:46:27.455Z,101309.66
2022-12-06T10:49:03.882Z,101304.38
2022-12-06T10:51:38.191Z,101303.47
2022-12-06T10:54:19.301Z,101295.63
2022-12-06T10:56:50.296Z,101298.19
2022-12-06T10:59:31.098Z,101288.47
2022-12-06T11:02:03.048Z,101293.75
2022-12-06T11:04:34.598Z,101297.28
2022-12-06T11:07:06.818Z,101298.16
2022-12-06T11:09:39.782Z,101302.56
2022-12-06T11:12:26.619Z,101292.84
2022-12-06T11:15:05.741Z,101306.94
2022-12-06T11:17:38.130Z,101300.78
2022-12-06T11:20:17.132Z,101294.66
2022-12-06T11:22:53.503Z,101292.88
2022-12-06T11:25:26.730Z,101295.50
2022-12-06T11:28:00.779Z,101288.47
2022-12-06T11:30:33.840Z,101286.75
2022-12-06T11:33:03.318Z,101285.91
2022-12-06T11:35:31.387Z,101283.19
2022-12-06T11:38:02.202Z,101276.16
2022-12-06T11:40:33.538Z,101268.28
2022-12-06T11:43:05.042Z,101266.47
2022-12-06T11:45:36.705Z,101255.94
2022-12-06T11:48:15.015Z,101266.56
2022-12-06T11:50:44.844Z,101258.75
2022-12-06T11:53:21.310Z,101264.84
2022-12-06T11:55:53.567Z,101256.06
2022-12-06T11:58:28.102Z,101265.69
2022-12-06T12:01:01.010Z,101258.63
2022-12-06T12:03:31.479Z,101259.47
2022-12-06T12:06:10.133Z,101254.19
2022-12-06T12:08:39.087Z,101257.75
2022-12-06T12:11:07.693Z,101254.19
2022-12-06T12:13:45.261Z,101254.16
2022-12-06T12:16:19.865Z,101245.38
2022-12-06T12:18:57.076Z,101252.38
2022-12-06T12:21:37.898Z,101249.72
2022-12-06T12:24:08.152Z,101247.06
2022-12-06T12:26:40.211Z,101236.47
2022-12-06T12:29:19.285Z,101230.25
2022-12-06T12:31:54.335Z,101242.56
2022-12-06T12:34:25.684Z,101242.56
2022-12-06T12:36:56.046Z,101237.22
2022-12-06T12:39:30.458Z,101239.81
2022-12-06T12:41:58.742Z,101237.19
2022-12-06T12:44:37.669Z,101230.22
2022-12-06T12:47:19.769Z,101235.38
2022-12-06T12:50:01.599Z,101225.69
2022-12-06T12:52:32.320Z,101225.69
2022-12-06T12:55:03.335Z,101222.16
2022-12-06T12:57:31.709Z,101227.47
2022-12-06T12:59:59.840Z,101222.22
2022-12-06T13:02:31.957Z,101215.22
2022-12-06T13:07:54.408Z,101211.63
2022-12-06T13:10:28.233Z,101208.13
2022-12-06T13:12:59.628Z,101214.31
2022-12-06T13:15:34.446Z,101203.72
2022-12-06T13:18:11.916Z,101210.78
2022-12-06T13:20:41.539Z,101202.91
2022-12-06T13:23:14.961Z,101206.47
2022-12-06T13:25:47.535Z,101208.19
2022-12-06T13:28:20.282Z,101206.41
2022-12-06T13:30:55.394Z,101212.56
2022-12-06T13:33:28.236Z,101207.22
2022-12-06T13:36:02.631Z,101218.63
2022-12-06T13:38:33.279Z,101215.94
2022-12-06T13:41:02.637Z,101218.59
2022-12-06T13:43:54.605Z,101212.50
2022-12-06T13:46:34.751Z,101216.91
2022-12-06T13:49:06.680Z,101209.00
2022-12-06T13:51:55.488Z,101214.31
2022-12-06T13:54:33.620Z,101213.41
2022-12-06T13:57:21.100Z,101223.97
2022-12-06T13:59:49.316Z,101215.19
2022-12-06T14:02:44.145Z,101219.56
2022-12-06T14:08:18.826Z,101204.59
2022-12-06T14:10:47.581Z,101201.97
2022-12-06T14:13:20.536Z,101207.28
2022-12-06T14:15:53.169Z,101201.13
2022-12-06T14:18:24.388Z,101198.50
2022-12-06T14:20:56.713Z,101197.66
2022-12-06T14:23:29.508Z,101193.22
2022-12-06T14:26:16.435Z,101204.69
2022-12-06T14:28:44.653Z,101200.28
2022-12-06T14:31:25.334Z,101173.84
2022-12-06T14:33:54.633Z,101195.00
2022-12-06T14:36:27.105Z,101186.19
2022-12-06T14:39:01.467Z,101192.31
2022-12-06T14:41:50.651Z,101185.28
2022-12-06T14:44:20.137Z,101199.38
2022-12-06T14:46:50.569Z,101186.19
2022-12-06T14:49:39.410Z,101186.13
2022-12-06T14:52:34.383Z,101187.91
2022-12-06T14:55:17.685Z,101186.13
2022-12-06T14:57:47.969Z,101156.91
2022-12-06T15:00:26.388Z,101175.53
2022-12-06T15:03:30.687Z,101177.38
2022-12-06T15:06:14.737Z,101183.50
2022-12-06T15:08:44.453Z,101180.94
2022-12-06T15:11:52.710Z,101187.94
2022-12-06T15:14:23.125Z,101175.59
2022-12-06T15:17:00.969Z,101186.13
2022-12-06T15:19:31.953Z,101182.59
2022-12-06T15:22:00.874Z,101179.00
2022-12-06T15:24:29.959Z,101186.94
2022-12-06T15:26:59.468Z,101191.34
2022-12-06T15:29:27.618Z,101180.78
2022-12-06T15:31:56.225Z,101181.66
2022-12-06T15:34:27.939Z,101188.66
2022-12-06T15:37:29.786Z,101186.84
2022-12-06T15:39:45.798Z,101183.31
2022-12-06T15:42:19.650Z,101187.66
2022-12-06T15:44:49.751Z,101182.41
2022-12-06T15:47:29.349Z,101186.72
2022-12-06T15:49:58.593Z,101182.22
2022-12-06T15:52:27.933Z,101175.09
2022-12-06T15:54:56.197Z,101186.50
2022-12-06T15:57:25.726Z,101187.34
2022-12-06T15:59:53.764Z,101184.66
2022-12-06T16:02:21.914Z,101184.59
2022-12-06T16:04:51.990Z,101181.13
2022-12-06T16:07:20.140Z,101187.25
2022-12-06T16:09:49.067Z,101187.22
2022-12-06T16:12:17.986Z,101195.13
2022-12-06T16:14:47.445Z,101189.81
2022-12-06T16:17:15.486Z,101188.91
2022-12-06T16:20:00.865Z,101195.09
2022-12-06T16:22:42.822Z,101188.91
2022-12-06T16:25:11.167Z,101195.03
2022-12-06T16:27:39.308Z,101189.72
2022-12-06T16:30:10.314Z,101154.41
2022-12-06T16:32:38.529Z,101183.44
2022-12-06T16:35:06.884Z,101193.94
2022-12-06T16:37:34.933Z,101186.81
2022-12-06T16:40:03.163Z,101178.94
2022-12-06T16:42:31.348Z,101185.00
2022-12-06T16:44:59.780Z,101186.75
2022-12-06T16:49:56.719Z,101184.00
2022-12-06T16:52:24.938Z,101182.28
2022-12-06T16:54:53.155Z,101177.75
2022-12-06T16:57:21.308Z,101171.53
2022-12-06T16:59:49.520Z,101175.84
2022-12-06T17:02:27.535Z,101179.25
2022-12-06T17:04:58.925Z,101178.28
2022-12-06T17:07:27.737Z,101180.06
2022-12-06T17:09:56.631Z,101181.72
2022-12-06T17:12:24.780Z,101181.72
2022-12-06T17:14:52.918Z,101171.94
2022-12-06T17:17:22.756Z,101179.00
2022-12-06T17:19:51.081Z,101189.47
2022-12-06T17:22:20.479Z,101177.22
2022-12-06T17:24:48.568Z,101178.03
2022-12-06T17:27:17.287Z,101184.09
2022-12-06T17:29:45.728Z,101183.22
2022-12-06T17:32:14.305Z,101180.66
2022-12-06T17:34:42.464Z,101171.91
2022-12-06T17:37:10.587Z,101178.03
2022-12-06T17:39:40.208Z,101172.81
2022-12-06T17:42:26.187Z,101178.94
2022-12-06T17:44:54.266Z,101178.03
2022-12-06T17:47:22.726Z,101177.25
2022-12-06T17:49:50.935Z,101172.91
2022-12-06T17:52:19.906Z,101173.75
2022-12-06T17:54:49.502Z,101161.41
2022-12-06T17:57:18.767Z,101168.47
2022-12-06T17:59:48.686Z,101160.59
2022-12-06T18:02:19.765Z,101165.91
2022-12-06T18:04:48.834Z,101163.28
2022-12-06T18:07:17.703Z,101160.66
2022-12-06T18:09:45.924Z,101162.44
2022-12-06T18:12:17.119Z,101152.75
2022-12-06T18:14:45.838Z,101134.28
2022-12-06T18:17:14.212Z,101148.47
2022-12-06T18:19:43.689Z,101144.03
2022-12-06T18:22:11.935Z,101138.78
2022-12-06T18:24:40.022Z,101135.22
2022-12-06T18:27:08.699Z,101128.19
2022-12-06T18:29:38.243Z,101137.00
2022-12-06T18:32:06.711Z,101134.44
2022-12-06T18:34:35.194Z,101136.22
2022-12-06T18:37:03.359Z,101136.28
2022-12-06T18:39:31.591Z,101130.16
2022-12-06T18:41:59.675Z,101124.88
2022-12-06T18:44:27.879Z,101130.19
2022-12-06T18:46:57.329Z,101125.81
2022-12-06T18:49:25.466Z,101125.81
2022-12-06T18:51:53.549Z,101127.59
2022-12-06T18:54:21.779Z,101117.94
2022-12-06T18:56:49.893Z,101114.34
2022-12-06T18:59:20.951Z,101116.06
2022-12-06T19:01:51.424Z,101113.34
2022-12-06T19:04:20.941Z,101116.81
2022-12-06T19:06:48.980Z,101118.47
2022-12-06T19:09:17.093Z,101099.91
2022-12-06T19:11:46.944Z,101110.47
2022-12-06T19:14:15.644Z,101107.78
2022-12-06T19:16:45.168Z,101104.31
2022-12-06T19:19:16.912Z,101087.53
2022-12-06T19:21:47.782Z,101088.59
2022-12-06T19:24:17.545Z,101098.03
2022-12-06T19:26:45.796Z,101098.81
2022-12-06T19:29:16.330Z,101090.91
2022-12-06T19:31:44.778Z,101094.41
2022-12-06T19:34:16.601Z,101086.53
2022-12-06T19:36:47.078Z,101092.66
2022-12-06T19:39:15.275Z,101094.44
2022-12-06T19:42:01.089Z,101087.56
2022-12-06T19:44:29.793Z,101085.81
2022-12-06T19:46:58.548Z,101084.13
2022-12-06T19:49:28.135Z,101089.41
2022-12-06T19:51:57.659Z,101074.66
2022-12-06T19:54:27.504Z,101081.69
2022-12-06T19:56:56.911Z,101081.75
2022-12-06T19:59:27.199Z,101068.69
2022-12-06T20:01:58.261Z,101065.25
2022-12-06T20:04:28.452Z,101066.97
2022-12-06T20:06:58.525Z,101053.91
2022-12-06T20:09:28.892Z,101047.66
2022-12-06T20:12:04.728Z,101042.47
2022-12-06T20:14:38.633Z,101033.66
2022-12-06T20:17:09.052Z,101037.97
2022-12-06T20:19:37.242Z,101032.75
2022-12-06T20:22:06.759Z,101029.22
2022-12-06T20:24:34.878Z,101020.53
2022-12-06T20:27:03.242Z,101013.56
2022-12-06T20:29:32.588Z,101015.41
2022-12-06T20:32:01.571Z,101013.66
2022-12-06T20:34:34.337Z,101015.47
2022-12-06T20:37:04.614Z,100998.81
2022-12-06T20:39:36.551Z,101000.72
2022-12-06T20:42:06.199Z,100999.81
2022-12-06T20:44:34.533Z,100994.56
2022-12-06T20:47:02.801Z,100987.59
2022-12-06T20:49:31.106Z,100989.41
2022-12-06T20:52:01.968Z,100986.84
2022-12-06T20:54:30.363Z,100979.84
2022-12-06T20:56:59.808Z,100977.25
2022-12-06T20:59:29.319Z,100975.53
2022-12-06T21:01:57.624Z,100970.28
2022-12-06T21:04:26.164Z,100965.84
2022-12-06T21:06:54.369Z,100963.22
2022-12-06T21:09:23.105Z,100954.47
2022-12-06T21:11:51.289Z,100951.84
2022-12-06T21:14:20.690Z,100942.19
2022-12-06T21:16:48.996Z,100940.47
2022-12-06T21:19:19.449Z,100942.25
2022-12-06T21:21:49.576Z,100937.00
2022-12-06T21:24:21.134Z,100937.84
2022-12-06T21:26:49.530Z,100931.75
2022-12-06T21:29:19.056Z,100935.28
2022-12-06T21:31:48.570Z,100935.25
2022-12-06T21:34:17.151Z,100930.84
2022-12-06T21:36:45.797Z,100933.47
2022-12-06T21:39:14.940Z,100936.16
2022-12-06T21:41:43.085Z,100938.81
2022-12-06T21:44:11.267Z,100935.28
2022-12-06T21:46:39.511Z,100932.72
2022-12-06T21:49:10.659Z,100930.94
2022-12-06T21:51:38.790Z,100936.22
2022-12-06T21:54:06.932Z,100934.47
2022-12-06T21:56:35.149Z,100933.59
2022-12-06T21:59:03.559Z,100931.81
2022-12-06T22:01:32.736Z,100920.44
2022-12-06T22:04:04.383Z,100912.56
2022-12-06T22:06:35.576Z,100913.50
2022-12-06T22:09:06.466Z,100910.88
2022-12-06T22:11:35.661Z,100908.25
2022-12-06T22:14:04.752Z,100902.97
2022-12-06T22:16:33.190Z,100905.63
2022-12-06T22:19:01.325Z,100903.91
2022-12-06T22:21:31.762Z,100891.56
2022-12-06T22:24:01.260Z,100888.94
2022-12-06T22:26:31.554Z,100895.09
2022-12-06T22:29:00.448Z,100888.06
2022-12-06T22:31:30.148Z,100876.66
2022-12-06T22:33:59.144Z,100879.31
2022-12-06T22:36:28.919Z,100880.22
2022-12-06T22:38:58.676Z,100881.94
2022-12-06T22:41:29.680Z,100882.84
2022-12-06T22:43:59.064Z,100871.47
2022-12-06T22:46:28.358Z,100870.59
2022-12-06T22:48:57.602Z,100867.09
2022-12-06T22:51:27.780Z,100862.75
2022-12-06T22:53:57.791Z,100869.75
2022-12-06T22:56:26.734Z,100865.38
2022-12-06T22:58:57.407Z,100864.47
2022-12-06T23:01:27.474Z,100852.22
2022-12-06T23:03:56.365Z,100866.25
2022-12-06T23:06:26.866Z,100866.28
2022-12-06T23:08:55.379Z,100866.31
2022-12-06T23:11:26.002Z,100866.31
2022-12-06T23:13:55.078Z,100869.81
2022-12-06T23:16:27.011Z,100878.59
2022-12-06T23:18:55.905Z,100860.16
2022-12-06T23:21:25.784Z,100875.94
2022-12-06T23:23:55.390Z,100858.38
2022-12-06T23:26:25.617Z,100848.72
2022-12-06T23:28:53.822Z,100839.94
2022-12-06T23:31:25.474Z,100827.63
2022-12-06T23:33:54.563Z,100837.28
2022-12-06T23:36:25.169Z,100831.09
2022-12-06T23:38:53.636Z,100829.34
2022-12-06T23:41:24.565Z,100829.28
2022-12-06T23:43:54.228Z,100828.44
2022-12-06T23:46:25.599Z,100823.16
2022-12-06T23:48:53.868Z,100821.38
2022-12-06T23:51:23.299Z,100810.00
2022-12-06T23:53:52.890Z,100805.59
2022-12-06T23:56:22.935Z,100799.47
2022-12-06T23:58:52.212Z,100796.00
